Maria S. Merian — DBBT — position and weather

sailwx.info

Track history (hours):
 
Tides and Currents Weather Stations Pressure Air Temp Water Temp Dewpoint Dewpoint Depression Visibility Wind Speed Wind Dir Waves Ship Positions

Oceanographic research ship Maria S. Merian (Germany)

Last reported at 2019-Dec-06 05:00 UTC. Time now 2019-Dec-06 05:34 UTC.
Position N 15°18' W 039°48'.

Length 94.8 m; beam 19.2 m; draft 6.5 m.

Type: Other ship. MMSI: 211753000.

Wind from 060 at 22 knots

Barometer 1016.3 mb
Air temperature 25.4 ° C
Water temperature 26.5 ° C

Date/timePositionNaut miles runAvg speedWind from/ knotsBaromVisibWave heightAir tempDewpointWater temp
2019-Dec-06 05:00N 15°18' W 039°48'1211.6 060 / 221016.3 25.4 26.5
2019-Dec-06 04:00N 15°18' W 040°00'8 8.3 050 / 231016.6 25.5 26.4
2019-Dec-06 03:00N 15°24' W 040°06'1211.6 050 / 231017.2 25.4 26.4
2019-Dec-06 02:00N 15°24' W 040°18'1211.6 060 / 251017.3 25.7 26.5
2019-Dec-06 01:00N 15°24' W 040°30'1211.6 060 / 241017.5 25.7 26.5
2019-Dec-06 00:00N 15°24' W 040°42'6 5.8 060 / 241017.8 25.7 26.5
2019-Dec-05 23:00N 15°24' W 040°48'1211.6 050 / 261017.4 25.9 26.6
2019-Dec-05 22:00N 15°24' W 041°00'1211.6 050 / 261016.9 25.9 26.6
2019-Dec-05 21:00N 15°24' W 041°12'6 5.8 060 / 261016.2 25.9 26.7
2019-Dec-05 20:00N 15°24' W 041°18'1313.0 070 / 221015.8 25.9 26.6
2019-Dec-05 19:00N 15°30' W 041°30'1211.6 070 / 221015.6 26.4 26.6
2019-Dec-05 18:00N 15°30' W 041°42'1211.6 070 / 231015.3 26.4 26.6
2019-Dec-05 17:00N 15°30' W 041°54'1211.6 080 / 211015.6 26.5 26.6
2019-Dec-05 16:00N 15°30' W 042°06'1211.6 070 / 211016.2 26.4 26.6
2019-Dec-05 15:00N 15°30' W 042°18'6 5.8 080 / 241016.9 26.4 26.7
2019-Dec-05 14:00N 15°30' W 042°24'1211.6 070 / 221017.4 26.4 26.6
2019-Dec-05 13:00N 15°30' W 042°36'1313.0 080 / 251017.9 26.4 26.8
2019-Dec-05 12:00N 15°36' W 042°48'1211.6 080 / 251017.9 26.4 26.8
2019-Dec-05 11:00N 15°36' W 043°00'6 5.8 080 / 261017.5 26.4 26.9
2019-Dec-05 10:00N 15°36' W 043°06'1211.6 060 / 261016.7 26.0 26.9
2019-Dec-05 09:00N 15°36' W 043°18'1211.6 060 / 221016.0 25.7 26.9
2019-Dec-05 08:00N 15°36' W 043°30'6 5.8 090 / 221015.9 24.2 26.9
2019-Dec-05 07:00N 15°36' W 043°36'1211.6 070 / 231015.5 25.9 26.7
2019-Dec-05 06:00N 15°36' W 043°48'1313.0 080 / 221015.3 25.9 26.7
2019-Dec-05 05:00N 15°42' W 044°00'1211.6 070 / 231015.6 25.9 26.8
2019-Dec-05 04:00N 15°42' W 044°12'6 5.8 070 / 241016.0 26.0 26.9
2019-Dec-05 03:00N 15°42' W 044°18'1211.6 070 / 231016.6 26.2 26.9
2019-Dec-05 02:00N 15°42' W 044°30'1211.6 070 / 231017.2 26.2 26.9
2019-Dec-05 01:00N 15°42' W 044°42'1211.6 080 / 241017.5 26.4 27.0
2019-Dec-05 00:00N 15°42' W 044°54'6 5.8 080 / 231017.5 26.4 27.0
2019-Dec-04 23:00N 15°42' W 045°00'1313.0 080 / 221017.1 26.4 26.9
2019-Dec-04 22:00N 15°48' W 045°12'1211.5 080 / 231016.4 26.4 27.0
2019-Dec-04 21:00N 15°48' W 045°24'6 5.8 070 / 241015.8 26.7 27.0
2019-Dec-04 20:00N 15°48' W 045°30'1211.5 080 / 261015.3 26.7 27.0
2019-Dec-04 19:00N 15°48' W 045°42'1211.5 080 / 241014.9 26.5 27.0
2019-Dec-04 18:00N 15°48' W 045°54'1211.5 080 / 231014.6 26.9 27.0
2019-Dec-04 17:00N 15°48' W 046°06'0 0.0 080 / 241014.7 27.0 27.0
2019-Dec-04 16:00N 15°48' W 046°06'0 0.0 080 / 241015.5 26.9 27.0
2019-Dec-04 14:00N 15°48' W 046°06'6 5.8 070 / 231016.9 27.0 27.0
2019-Dec-04 13:00N 15°48' W 046°12'1313.0 070 / 231016.9 26.4 27.0
2019-Dec-04 12:00N 15°54' W 046°24'6 5.8 070 / 231016.7 26.5 27.0
2019-Dec-04 11:00N 15°54' W 046°30'1211.5 080 / 241016.1 26.7 27.0
2019-Dec-04 10:00N 15°54' W 046°42'1211.5 080 / 251015.5 26.4 27.1
2019-Dec-04 09:00N 15°54' W 046°54'1211.5 080 / 231015.1 26.4 27.0
2019-Dec-04 08:00N 15°54' W 047°06'6 5.8 080 / 241014.3 26.2 27.0
2019-Dec-04 07:00N 15°54' W 047°12'1211.5 080 / 251014.3 26.2 27.0
2019-Dec-04 06:00N 15°54' W 047°24'1211.5 070 / 241014.5 26.2 27.1
2019-Dec-04 05:00N 15°54' W 047°36'8 8.3 060 / 241015.1 26.4 27.2
2019-Dec-04 04:00N 16°00' W 047°42'6 5.8 070 / 221015.6 26.4 27.1
2019-Dec-04 03:00N 16°00' W 047°48'6 5.8 080 / 221016.1 26.4 27.2
2019-Dec-04 02:00N 16°00' W 047°42'1211.5 080 / 231016.4 26.5 27.2
2019-Dec-04 01:00N 16°00' W 047°30'1211.5 080 / 251016.5 26.5 27.2
2019-Dec-04 00:00N 16°00' W 047°18'6 5.8 080 / 231016.4 26.5 27.2
2019-Dec-03 23:00N 16°00' W 047°12'1211.5 080 / 241016.1 26.4 27.1
2019-Dec-03 22:00N 16°00' W 047°00'1211.5 070 / 251015.6 26.5 27.1
2019-Dec-03 21:00N 16°00' W 046°48'6 5.8 080 / 241015.0 26.4 27.1
2019-Dec-03 20:00N 16°00' W 046°42'1313.0 070 / 211014.4 26.7 27.1
2019-Dec-03 19:00N 15°54' W 046°30'1211.5 080 / 221014.1 26.9 27.1
2019-Dec-03 18:00N 15°54' W 046°18'17 8.7 070 / 231014.0 26.9 27.1
2019-Dec-03 16:00N 15°54' W 046°00'1211.5 080 / 241014.9 26.5 27.1
2019-Dec-03 15:00N 15°54' W 045°48'1211.5 070 / 231015.6 26.5 27.0
2019-Dec-03 14:00N 15°54' W 045°36'1211.5 070 / 261016.0 26.4 27.1
2019-Dec-03 13:00N 15°54' W 045°24'8 8.3 070 / 231016.4 26.4 27.0
2019-Dec-03 12:00N 15°48' W 045°18'1211.5 070 / 241016.5 26.7 27.0
2019-Dec-03 11:00N 15°48' W 045°06'1211.5 070 / 241016.3 26.2 27.0
2019-Dec-03 10:00N 15°48' W 044°54'6 5.8 070 / 241015.6 26.4 27.1
2019-Dec-03 09:00N 15°48' W 044°48'1211.5 080 / 241015.3 26.2 27.1
2019-Dec-03 08:00N 15°48' W 044°36'1211.5 080 / 251015.1 26.0 27.0
2019-Dec-03 07:00N 15°48' W 044°24'6 5.8 070 / 241015.1 26.0 27.0
2019-Dec-03 06:00N 15°48' W 044°18'1313.0 070 / 241015.1 25.9 26.9
2019-Dec-03 05:00N 15°42' W 044°06'1211.6 060 / 241015.6 25.9 26.9
2019-Dec-03 04:00N 15°42' W 043°54'1211.6 060 / 231016.0 25.9 26.9
2019-Dec-03 03:00N 15°42' W 043°42'6 5.8 060 / 271016.3 25.0 26.8
2019-Dec-03 02:00N 15°42' W 043°36'1211.6 050 / 201016.5 24.9 26.8
2019-Dec-03 01:00N 15°42' W 043°24'1211.6 070 / 211016.6 26.5 26.9
2019-Dec-03 00:00N 15°42' W 043°12'1211.6 060 / 171016.6 26.4 26.9
2019-Dec-02 23:00N 15°42' W 043°00'6 5.8 070 / 151016.4 26.0 27.1
2019-Dec-02 22:00N 15°42' W 042°54'1313.0 050 / 171016.0 25.9 27.1
2019-Dec-02 21:00N 15°36' W 042°42'1211.6 060 / 201015.8 26.4 27.0
2019-Dec-02 20:00N 15°36' W 042°30'6 5.8 060 / 191015.4 26.0 26.9
2019-Dec-02 19:00N 15°36' W 042°24'1211.6 070 / 201014.9 26.4 26.8
2019-Dec-02 18:00N 15°36' W 042°12'1211.6 070 / 171014.8 26.4 26.8
2019-Dec-02 17:00N 15°36' W 042°00'1211.6 060 / 191014.6 26.2 26.7
2019-Dec-02 16:00N 15°36' W 041°48'6 5.8 060 / 191015.1 26.2 26.7
2019-Dec-02 15:00N 15°36' W 041°42'1313.0 060 / 191015.8 26.2 26.6
2019-Dec-02 14:00N 15°30' W 041°30'1211.6 060 / 211016.8 26.2 26.6
2019-Dec-02 13:00N 15°30' W 041°18'1211.6 060 / 191017.3 25.9 26.7
2019-Dec-02 12:00N 15°30' W 041°06'6 5.8 060 / 211017.5 26.2 26.7
2019-Dec-02 11:00N 15°30' W 041°00'1211.6 050 / 201017.4 26.2 26.7
2019-Dec-02 10:00N 15°30' W 040°48'1211.6 060 / 191017.1 25.9 26.7
2019-Dec-02 09:00N 15°30' W 040°36'6 5.8 060 / 161016.9 25.7 26.7
2019-Dec-02 08:00N 15°30' W 040°30'1211.6 050 / 161016.9 25.7 26.6
2019-Dec-02 07:00N 15°30' W 040°18'1313.0 060 / 171016.6 25.9 26.6
2019-Dec-02 06:00N 15°24' W 040°06'1211.6 060 / 171016.5 25.7 26.6
2019-Dec-02 05:00N 15°24' W 039°54'6 5.8 060 / 171017.2 25.7 26.6
2019-Dec-02 04:00N 15°24' W 039°48'1211.6 070 / 141017.6 25.7 26.6
2019-Dec-02 03:00N 15°24' W 039°36'1211.6 060 / 161017.9 25.9 26.5
2019-Dec-02 02:00N 15°24' W 039°24'6 5.8 060 / 151018.2 25.9 26.6
2019-Dec-02 01:00N 15°24' W 039°18'1211.6 070 / 151018.3 25.9 26.7
2019-Dec-02 00:00N 15°24' W 039°06'1313.0 070 / 171018.3 25.7 26.7
2019-Dec-01 23:00N 15°18' W 038°54'6 5.8 070 / 141018.2 25.7 26.6
2019-Dec-01 22:00N 15°18' W 038°48'1211.6 070 / 141017.9 25.9 26.6
2019-Dec-01 21:00N 15°18' W 038°36'1211.6 070 / 131017.4 25.9 26.6
2019-Dec-01 20:00N 15°18' W 038°24'1211.6 080 / 151017.2 25.7 26.5
2019-Dec-01 19:00N 15°18' W 038°12'6 5.8 070 / 141016.7 25.7 26.5
2019-Dec-01 18:00N 15°18' W 038°06'1211.6 070 / 141016.2 25.9 26.5
2019-Dec-01 17:00N 15°18' W 037°54'1211.6 070 / 151016.1 26.2 26.5
2019-Dec-01 16:00N 15°18' W 037°42'1313.0 080 / 151016.4 26.2 26.5
2019-Dec-01 15:00N 15°12' W 037°30'6 5.8 070 / 161016.8 25.9 26.5
2019-Dec-01 14:00N 15°12' W 037°24'1211.6 070 / 151017.5 26.0 26.5
2019-Dec-01 13:00N 15°12' W 037°12'1211.6 080 / 141018.3 26.2 26.5
2019-Dec-01 12:00N 15°12' W 037°00'6 5.8 080 / 141018.1 26.0 26.5
2019-Dec-01 11:00N 15°12' W 036°54'1211.6 080 / 161018.1 26.0 26.4
2019-Dec-01 10:00N 15°12' W 036°42'1211.6 070 / 181017.6 25.5 26.4
2019-Dec-01 09:00N 15°12' W 036°30'1313.0 060 / 161017.2 25.5 26.3
2019-Dec-01 08:00N 15°06' W 036°18'6 5.8 060 / 161016.5 25.4 26.3
2019-Dec-01 07:00N 15°06' W 036°12'1211.6 060 / 161016.2 25.2 26.3
2019-Dec-01 06:00N 15°06' W 036°00'1211.6 060 / 151016.2 25.4 26.3
2019-Dec-01 05:00N 15°06' W 035°48'6 5.8 060 / 161016.5 25.4 26.4
2019-Dec-01 04:00N 15°06' W 035°42'1211.6 060 / 161016.9 25.5 26.4
2019-Dec-01 03:00N 15°06' W 035°30'1211.6 060 / 171017.0 25.5 26.4
2019-Dec-01 02:00N 15°06' W 035°18'1313.0 060 / 151017.2 25.5 26.4
2019-Dec-01 01:00N 15°00' W 035°06'6 5.8 070 / 161017.5 25.5 26.4
2019-Dec-01 00:00N 15°00' W 035°00'1211.6 070 / 151017.8 25.7 26.4
2019-Nov-30 23:00N 15°00' W 034°48'1211.6 070 / 151017.7 25.7 26.4
2019-Nov-30 22:00N 15°00' W 034°36'6 5.8 070 / 131017.3 25.7 26.4
2019-Nov-30 21:00N 15°00' W 034°30'1211.6 070 / 131016.5 25.7 26.4
2019-Nov-30 20:00N 15°00' W 034°18'1211.6 070 / 171016.0 25.5 26.4
2019-Nov-30 19:00N 15°00' W 034°06'1211.6 070 / 181015.6 25.9 26.4
2019-Nov-30 18:00N 15°00' W 033°54'8 8.3 070 / 161015.3 25.9 26.3
2019-Nov-30 17:00N 14°54' W 033°48'1211.6 080 / 151015.0 25.9 26.3
2019-Nov-30 16:00N 14°54' W 033°36'1211.6 080 / 121015.5 25.9 26.4
2019-Nov-30 15:00N 14°54' W 033°24'6 5.8 080 / 151015.8 26.2 26.4
2019-Nov-30 14:00N 14°54' W 033°18'1211.6 070 / 191015.9 25.7 26.4
2019-Nov-30 13:00N 14°54' W 033°06'1211.6 080 / 181016.2 25.7 26.4
2019-Nov-30 12:00N 14°54' W 032°54'1211.6 080 / 211016.2 25.7 26.5
2019-Nov-30 11:00N 14°54' W 032°42'8 8.3 070 / 221016.3 25.5 26.4
2019-Nov-30 10:00N 14°48' W 032°36'1211.6 070 / 211016.1 25.7 26.3
2019-Nov-30 09:00N 14°48' W 032°24'1211.6 080 / 201015.6 25.4 26.2
2019-Nov-30 08:00N 14°48' W 032°12'6 5.8 080 / 181015.3 25.2 26.1
2019-Nov-30 07:00N 14°48' W 032°06'1211.6 080 / 181014.9 25.2 26.0
2019-Nov-30 06:00N 14°48' W 031°54'1211.6 080 / 181015.0 25.4 26.1
2019-Nov-30 05:00N 14°48' W 031°42'1211.6 070 / 161015.0 25.2 26.1
2019-Nov-30 04:00N 14°48' W 031°30'6 5.8 070 / 171015.3 25.2 26.2
2019-Nov-30 03:00N 14°48' W 031°24'1313.1 070 / 181015.8 25.0 26.2
2019-Nov-30 02:00N 14°42' W 031°12'1211.6 070 / 181016.2 25.2 26.2
2019-Nov-30 01:00N 14°42' W 031°00'6 5.8 070 / 131016.4 25.2 26.2
2019-Nov-30 00:00N 14°42' W 030°54'1211.6 060 / 171016.4 25.0 26.2
2019-Nov-29 23:00N 14°42' W 030°42'1211.6 060 / 161016.4 25.2 26.2
2019-Nov-29 22:00N 14°42' W 030°30'1211.6 050 / 131015.8 25.0 26.2
2019-Nov-29 21:00N 14°42' W 030°18'6 5.8 060 / 131015.2 25.0 26.0
2019-Nov-29 20:00N 14°42' W 030°12'1313.1 070 / 141014.6 25.0 25.9
2019-Nov-29 19:00N 14°36' W 030°00'1211.6 060 / 141013.9 25.2 26.0
2019-Nov-29 18:00N 14°36' W 029°48'6 5.8 050 / 171013.4 25.4 25.8
2019-Nov-29 17:00N 14°36' W 029°42'1211.6 050 / 161013.1 25.2 25.8
2019-Nov-29 16:00N 14°36' W 029°30'1211.6 070 / 141013.3 25.5 26.1
2019-Nov-29 15:00N 14°36' W 029°18'1211.6 070 / 141013.8 25.7 26.2
2019-Nov-29 14:00N 14°36' W 029°06'0 0.0 070 / 171014.2 25.5 26.1
2019-Nov-29 13:00N 14°36' W 029°06'0 0.0 060 / 181014.8 25.7 26.1
2019-Nov-29 12:00N 14°36' W 029°06'0 0.0 060 / 181015.3 25.9 26.1
2019-Nov-29 11:00N 14°36' W 029°06'6 5.8 060 / 191015.3 25.7 26.1
2019-Nov-29 10:00N 14°36' W 029°00'6 5.8 060 / 181015.1 25.7 26.1
2019-Nov-29 09:00N 14°36' W 028°54'1313.1 070 / 171014.5 25.4 26.2
2019-Nov-29 08:00N 14°30' W 028°42'1211.6 070 / 161014.4 25.2 26.1
2019-Nov-29 07:00N 14°30' W 028°30'6 5.8 070 / 191014.2 25.4 26.2
2019-Nov-29 06:00N 14°30' W 028°24'1211.6 070 / 141014.0 25.2 26.2
2019-Nov-29 05:00N 14°30' W 028°12'1313.1 050 / 141014.1 25.2 26.3
2019-Nov-29 04:00N 14°36' W 028°00'1313.3 040 / 151014.5 25.2 26.4
2019-Nov-29 03:00N 14°48' W 027°54'1313.1 060 / 121014.8 25.0 26.5
2019-Nov-29 02:00N 14°54' W 027°42'8 8.3 040 / 141015.1 25.0 26.5
2019-Nov-29 01:00N 15°00' W 027°36'1313.0 060 / 101015.5 24.7 26.5
2019-Nov-29 00:00N 15°06' W 027°24'1313.0 060 / 131015.5 24.7 26.6
2019-Nov-28 23:00N 15°12' W 027°12'1313.3 050 / 121015.4 24.7 26.5
2019-Nov-28 22:00N 15°24' W 027°06'1313.0 050 / 121015.1 24.4 26.4
2019-Nov-28 21:00N 15°30' W 026°54'1313.0 060 / 111014.4 24.2 25.7
2019-Nov-28 20:00N 15°36' W 026°42'1716.7 050 / 101013.9 24.4 25.8
2019-Nov-28 19:00N 15°48' W 026°30'8 8.3 070 / 81013.4 24.4 25.4
2019-Nov-28 18:00N 15°54' W 026°24'1716.6 060 / 81013.0 24.9 25.5
2019-Nov-28 17:00N 16°06' W 026°12'1313.0 050 / 81012.6 25.0 25.6
2019-Nov-28 16:00N 16°12' W 026°00'8 8.3 060 / 81012.9 25.2 25.9
2019-Nov-28 15:00N 16°18' W 025°54'1716.6 040 / 101013.2 25.2 25.9
2019-Nov-28 14:00N 16°30' W 025°42'1313.0 060 / 61013.9 24.7 26.2
2019-Nov-28 13:00N 16°36' W 025°30'1313.0 070 / 71014.8 24.4 26.4
2019-Nov-28 12:00N 16°42' W 025°18'8 8.3 090 / 91015.6 24.4 26.2
2019-Nov-28 11:00N 16°48' W 025°12'1313.0 060 / 201015.9 23.9 25.7
2019-Nov-28 10:00N 16°54' W 025°00'0 0.0 030 / 121015.9 23.7 24.0
2019-Nov-28 09:00N 16°54' W 025°00'0 0.0 050 / 81015.4 23.5 24.1
2019-Nov-28 08:00N 16°54' W 025°00'0 0.0 060 / 61015.0 22.9 24.1
2019-Nov-28 07:00N 16°54' W 025°00'0 0.0 050 / 81014.8 23.0 24.1
2019-Nov-28 06:00N 16°54' W 025°00'0 0.0 050 / 71014.5 23.0 24.1
2019-Nov-28 05:00N 16°54' W 025°00'0 0.0 070 / 71014.3 22.9 24.2
2019-Nov-28 04:00N 16°54' W 025°00'0 0.0 080 / 71014.6 22.9 24.2
2019-Nov-28 03:00N 16°54' W 025°00'0 0.0 060 / 71015.2 23.0 24.2
2019-Nov-28 02:00N 16°54' W 025°00'0 0.0 060 / 61015.7 23.2 24.2
2019-Nov-28 01:00N 16°54' W 025°00'0 0.0 050 / 81015.9 23.2 24.2
2019-Nov-28 00:00N 16°54' W 025°00'0 0.0 070 / 71016.2 23.2 24.2
2019-Nov-27 23:00N 16°54' W 025°00'0 0.0 050 / 101016.3 23.4 24.2
2019-Nov-27 22:00N 16°54' W 025°00'0 0.0 060 / 71015.9 23.4 24.2
2019-Nov-27 21:00N 16°54' W 025°00'0 0.0 050 / 121015.2 23.4 24.3
2019-Nov-27 20:00N 16°54' W 025°00'0 0.0 050 / 141014.2 23.4 24.3
2019-Nov-27 19:00N 16°54' W 025°00'0 0.0 050 / 141013.6 23.7 24.3
2019-Nov-27 18:00N 16°54' W 025°00'0 0.0 050 / 131013.2 24.2 24.3
2019-Nov-27 17:00N 16°54' W 025°00'0 0.0 050 / 111013.1 24.5 24.3
2019-Nov-27 16:00N 16°54' W 025°00'0 0.0 050 / 111013.1 24.7 24.3
2019-Nov-27 15:00N 16°54' W 025°00'0 0.0 040 / 121013.9 24.4 24.3
2019-Nov-27 14:00N 16°54' W 025°00'0 0.0 050 / 111014.2 24.2 24.3
2019-Nov-27 13:00N 16°54' W 025°00'0 0.0 050 / 81015.0 24.4 24.2
2019-Nov-27 12:00N 16°54' W 025°00'0 0.0 040 / 121015.8 24.2 24.2
2019-Nov-27 11:00N 16°54' W 025°00'0 0.0 040 / 121016.0 24.2 24.1
2019-Nov-27 10:00N 16°54' W 025°00'0 0.0 050 / 91016.0 23.7 24.1
2019-Nov-27 09:00N 16°54' W 025°00'0 0.0 060 / 91015.6 23.0 24.1
2019-Nov-27 08:00N 16°54' W 025°00'0 0.0 050 / 71015.2 22.7 24.1
2019-Nov-27 07:00N 16°54' W 025°00'0 0.0 060 / 81015.0 22.7 24.1
2019-Nov-27 06:00N 16°54' W 025°00'0 0.0 050 / 121014.7 22.7 24.1
2019-Nov-27 05:00N 16°54' W 025°00'0 0.0 060 / 91014.5 22.7 24.2
2019-Nov-27 04:00N 16°54' W 025°00'0 0.0 050 / 91014.9 22.9 24.2
2019-Nov-27 03:00N 16°54' W 025°00'0 0.0 050 / 101015.2 22.9 24.3
2019-Nov-27 02:00N 16°54' W 025°00'0 0.0 040 / 111015.6 23.0 24.4
2019-Nov-27 01:00N 16°54' W 025°00'0 0.0 040 / 101016.2 23.0 24.4
2019-Nov-27 00:00N 16°54' W 025°00'0 0.0 050 / 101016.4 23.4 24.4
2019-Nov-26 23:00N 16°54' W 025°00'0 0.0 050 / 111016.7 23.4 24.4
2019-Nov-26 22:00N 16°54' W 025°00'0 0.0 050 / 91016.6 23.4 24.4
2019-Nov-26 21:00N 16°54' W 025°00'0 0.0 060 / 111016.1 23.4 24.5
2019-Nov-26 20:00N 16°54' W 025°00'0 0.0 050 / 91015.1 23.4 24.5
2019-Nov-26 19:00N 16°54' W 025°00'0 0.0 050 / 121014.8 23.4 24.5
2019-Nov-26 18:00N 16°54' W 025°00'0 0.0 060 / 101014.4 24.4 24.5
2019-Nov-26 17:00N 16°54' W 025°00'0 0.0 060 / 101014.1 24.7 24.6
2019-Nov-26 16:00N 16°54' W 025°00'0 0.0 050 / 101014.5 24.7 24.6
2019-Nov-26 15:00N 16°54' W 025°00'0 0.0 030 / 131015.0 24.9 24.5
2019-Nov-26 14:00N 16°54' W 025°00'0 0.0 040 / 121015.8 24.7 24.6
2019-Nov-26 13:00N 16°54' W 025°00'0 0.0 060 / 101016.3 25.0 24.5
2019-Nov-26 12:00N 16°54' W 025°00'0 0.0 060 / 111016.7 24.5 24.5
2019-Nov-26 11:00N 16°54' W 025°00'0 0.0 040 / 121017.0 23.9 24.5
2019-Nov-26 10:00N 16°54' W 025°00'0 0.0 040 / 101016.6 24.0 24.5
2019-Nov-26 09:00N 16°54' W 025°00'0 0.0 050 / 91016.0 23.4 24.6
2019-Nov-26 08:00N 16°54' W 025°00'0 0.0 050 / 91015.5 22.9 24.6
2019-Nov-26 07:00N 16°54' W 025°00'0 0.0 050 / 71015.0 22.9 24.6
2019-Nov-26 06:00N 16°54' W 025°00'0 0.0 050 / 101014.9 22.9 24.6
2019-Nov-26 05:00N 16°54' W 025°00'   040 / 91015.0 23.0 24.6
Track history (hours):
 
Tides and Currents Weather Stations Pressure Air Temp Water Temp Dewpoint Dewpoint Depression Visibility Wind Speed Wind Dir Waves Ship Positions

Oceanographic research ship Maria S. Merian (Germany)

Last reported at 2019-Dec-06 05:00 UTC. Time now 2019-Dec-06 05:34 UTC.
Position N 15°18' W 039°48'.

Length 94.8 m; beam 19.2 m; draft 6.5 m.

Type: Other ship. MMSI: 211753000.

Wind from 060 at 22 knots

Barometer 1016.3 mb
Air temperature 25.4 ° C
Water temperature 26.5 ° C

Date/timePositionNaut miles runAvg speedWind from/ knotsBaromVisibWave heightAir tempDewpointWater temp
2019-Dec-06 05:00N 15°18' W 039°48'1211.6 060 / 221016.3 25.4 26.5
2019-Dec-06 04:00N 15°18' W 040°00'8 8.3 050 / 231016.6 25.5 26.4
2019-Dec-06 03:00N 15°24' W 040°06'1211.6 050 / 231017.2 25.4 26.4
2019-Dec-06 02:00N 15°24' W 040°18'1211.6 060 / 251017.3 25.7 26.5
2019-Dec-06 01:00N 15°24' W 040°30'1211.6 060 / 241017.5 25.7 26.5
2019-Dec-06 00:00N 15°24' W 040°42'6 5.8 060 / 241017.8 25.7 26.5
2019-Dec-05 23:00N 15°24' W 040°48'1211.6 050 / 261017.4 25.9 26.6
2019-Dec-05 22:00N 15°24' W 041°00'1211.6 050 / 261016.9 25.9 26.6
2019-Dec-05 21:00N 15°24' W 041°12'6 5.8 060 / 261016.2 25.9 26.7
2019-Dec-05 20:00N 15°24' W 041°18'1313.0 070 / 221015.8 25.9 26.6
2019-Dec-05 19:00N 15°30' W 041°30'1211.6 070 / 221015.6 26.4 26.6
2019-Dec-05 18:00N 15°30' W 041°42'1211.6 070 / 231015.3 26.4 26.6
2019-Dec-05 17:00N 15°30' W 041°54'1211.6 080 / 211015.6 26.5 26.6
2019-Dec-05 16:00N 15°30' W 042°06'1211.6 070 / 211016.2 26.4 26.6
2019-Dec-05 15:00N 15°30' W 042°18'6 5.8 080 / 241016.9 26.4 26.7
2019-Dec-05 14:00N 15°30' W 042°24'1211.6 070 / 221017.4 26.4 26.6
2019-Dec-05 13:00N 15°30' W 042°36'1313.0 080 / 251017.9 26.4 26.8
2019-Dec-05 12:00N 15°36' W 042°48'1211.6 080 / 251017.9 26.4 26.8
2019-Dec-05 11:00N 15°36' W 043°00'6 5.8 080 / 261017.5 26.4 26.9
2019-Dec-05 10:00N 15°36' W 043°06'1211.6 060 / 261016.7 26.0 26.9
2019-Dec-05 09:00N 15°36' W 043°18'1211.6 060 / 221016.0 25.7 26.9
2019-Dec-05 08:00N 15°36' W 043°30'6 5.8 090 / 221015.9 24.2 26.9
2019-Dec-05 07:00N 15°36' W 043°36'1211.6 070 / 231015.5 25.9 26.7
2019-Dec-05 06:00N 15°36' W 043°48'1313.0 080 / 221015.3 25.9 26.7
2019-Dec-05 05:00N 15°42' W 044°00'1211.6 070 / 231015.6 25.9 26.8
2019-Dec-05 04:00N 15°42' W 044°12'6 5.8 070 / 241016.0 26.0 26.9
2019-Dec-05 03:00N 15°42' W 044°18'1211.6 070 / 231016.6 26.2 26.9
2019-Dec-05 02:00N 15°42' W 044°30'1211.6 070 / 231017.2 26.2 26.9
2019-Dec-05 01:00N 15°42' W 044°42'1211.6 080 / 241017.5 26.4 27.0
2019-Dec-05 00:00N 15°42' W 044°54'6 5.8 080 / 231017.5 26.4 27.0
2019-Dec-04 23:00N 15°42' W 045°00'1313.0 080 / 221017.1 26.4 26.9
2019-Dec-04 22:00N 15°48' W 045°12'1211.5 080 / 231016.4 26.4 27.0
2019-Dec-04 21:00N 15°48' W 045°24'6 5.8 070 / 241015.8 26.7 27.0
2019-Dec-04 20:00N 15°48' W 045°30'1211.5 080 / 261015.3 26.7 27.0
2019-Dec-04 19:00N 15°48' W 045°42'1211.5 080 / 241014.9 26.5 27.0
2019-Dec-04 18:00N 15°48' W 045°54'1211.5 080 / 231014.6 26.9 27.0
2019-Dec-04 17:00N 15°48' W 046°06'0 0.0 080 / 241014.7 27.0 27.0
2019-Dec-04 16:00N 15°48' W 046°06'0 0.0 080 / 241015.5 26.9 27.0
2019-Dec-04 14:00N 15°48' W 046°06'6 5.8 070 / 231016.9 27.0 27.0
2019-Dec-04 13:00N 15°48' W 046°12'1313.0 070 / 231016.9 26.4 27.0
2019-Dec-04 12:00N 15°54' W 046°24'6 5.8 070 / 231016.7 26.5 27.0
2019-Dec-04 11:00N 15°54' W 046°30'1211.5 080 / 241016.1 26.7 27.0
2019-Dec-04 10:00N 15°54' W 046°42'1211.5 080 / 251015.5 26.4 27.1
2019-Dec-04 09:00N 15°54' W 046°54'1211.5 080 / 231015.1 26.4 27.0
2019-Dec-04 08:00N 15°54' W 047°06'6 5.8 080 / 241014.3 26.2 27.0
2019-Dec-04 07:00N 15°54' W 047°12'1211.5 080 / 251014.3 26.2 27.0
2019-Dec-04 06:00N 15°54' W 047°24'1211.5 070 / 241014.5 26.2 27.1
2019-Dec-04 05:00N 15°54' W 047°36'8 8.3 060 / 241015.1 26.4 27.2
2019-Dec-04 04:00N 16°00' W 047°42'6 5.8 070 / 221015.6 26.4 27.1
2019-Dec-04 03:00N 16°00' W 047°48'6 5.8 080 / 221016.1 26.4 27.2
2019-Dec-04 02:00N 16°00' W 047°42'1211.5 080 / 231016.4 26.5 27.2
2019-Dec-04 01:00N 16°00' W 047°30'1211.5 080 / 251016.5 26.5 27.2
2019-Dec-04 00:00N 16°00' W 047°18'6 5.8 080 / 231016.4 26.5 27.2
2019-Dec-03 23:00N 16°00' W 047°12'1211.5 080 / 241016.1 26.4 27.1
2019-Dec-03 22:00N 16°00' W 047°00'1211.5 070 / 251015.6 26.5 27.1
2019-Dec-03 21:00N 16°00' W 046°48'6 5.8 080 / 241015.0 26.4 27.1
2019-Dec-03 20:00N 16°00' W 046°42'1313.0 070 / 211014.4 26.7 27.1
2019-Dec-03 19:00N 15°54' W 046°30'1211.5 080 / 221014.1 26.9 27.1
2019-Dec-03 18:00N 15°54' W 046°18'17 8.7 070 / 231014.0 26.9 27.1
2019-Dec-03 16:00N 15°54' W 046°00'1211.5 080 / 241014.9 26.5 27.1
2019-Dec-03 15:00N 15°54' W 045°48'1211.5 070 / 231015.6 26.5 27.0
2019-Dec-03 14:00N 15°54' W 045°36'1211.5 070 / 261016.0 26.4 27.1
2019-Dec-03 13:00N 15°54' W 045°24'8 8.3 070 / 231016.4 26.4 27.0
2019-Dec-03 12:00N 15°48' W 045°18'1211.5 070 / 241016.5 26.7 27.0
2019-Dec-03 11:00N 15°48' W 045°06'1211.5 070 / 241016.3 26.2 27.0
2019-Dec-03 10:00N 15°48' W 044°54'6 5.8 070 / 241015.6 26.4 27.1
2019-Dec-03 09:00N 15°48' W 044°48'1211.5 080 / 241015.3 26.2 27.1
2019-Dec-03 08:00N 15°48' W 044°36'1211.5 080 / 251015.1 26.0 27.0
2019-Dec-03 07:00N 15°48' W 044°24'6 5.8 070 / 241015.1 26.0 27.0
2019-Dec-03 06:00N 15°48' W 044°18'1313.0 070 / 241015.1 25.9 26.9
2019-Dec-03 05:00N 15°42' W 044°06'1211.6 060 / 241015.6 25.9 26.9
2019-Dec-03 04:00N 15°42' W 043°54'1211.6 060 / 231016.0 25.9 26.9
2019-Dec-03 03:00N 15°42' W 043°42'6 5.8 060 / 271016.3 25.0 26.8
2019-Dec-03 02:00N 15°42' W 043°36'1211.6 050 / 201016.5 24.9 26.8
2019-Dec-03 01:00N 15°42' W 043°24'1211.6 070 / 211016.6 26.5 26.9
2019-Dec-03 00:00N 15°42' W 043°12'1211.6 060 / 171016.6 26.4 26.9
2019-Dec-02 23:00N 15°42' W 043°00'6 5.8 070 / 151016.4 26.0 27.1
2019-Dec-02 22:00N 15°42' W 042°54'1313.0 050 / 171016.0 25.9 27.1
2019-Dec-02 21:00N 15°36' W 042°42'1211.6 060 / 201015.8 26.4 27.0
2019-Dec-02 20:00N 15°36' W 042°30'6 5.8 060 / 191015.4 26.0 26.9
2019-Dec-02 19:00N 15°36' W 042°24'1211.6 070 / 201014.9 26.4 26.8
2019-Dec-02 18:00N 15°36' W 042°12'1211.6 070 / 171014.8 26.4 26.8
2019-Dec-02 17:00N 15°36' W 042°00'1211.6 060 / 191014.6 26.2 26.7
2019-Dec-02 16:00N 15°36' W 041°48'6 5.8 060 / 191015.1 26.2 26.7
2019-Dec-02 15:00N 15°36' W 041°42'1313.0 060 / 191015.8 26.2 26.6
2019-Dec-02 14:00N 15°30' W 041°30'1211.6 060 / 211016.8 26.2 26.6
2019-Dec-02 13:00N 15°30' W 041°18'1211.6 060 / 191017.3 25.9 26.7
2019-Dec-02 12:00N 15°30' W 041°06'6 5.8 060 / 211017.5 26.2 26.7
2019-Dec-02 11:00N 15°30' W 041°00'1211.6 050 / 201017.4 26.2 26.7
2019-Dec-02 10:00N 15°30' W 040°48'1211.6 060 / 191017.1 25.9 26.7
2019-Dec-02 09:00N 15°30' W 040°36'6 5.8 060 / 161016.9 25.7 26.7
2019-Dec-02 08:00N 15°30' W 040°30'1211.6 050 / 161016.9 25.7 26.6
2019-Dec-02 07:00N 15°30' W 040°18'1313.0 060 / 171016.6 25.9 26.6
2019-Dec-02 06:00N 15°24' W 040°06'1211.6 060 / 171016.5 25.7 26.6
2019-Dec-02 05:00N 15°24' W 039°54'6 5.8 060 / 171017.2 25.7 26.6
2019-Dec-02 04:00N 15°24' W 039°48'1211.6 070 / 141017.6 25.7 26.6
2019-Dec-02 03:00N 15°24' W 039°36'1211.6 060 / 161017.9 25.9 26.5
2019-Dec-02 02:00N 15°24' W 039°24'6 5.8 060 / 151018.2 25.9 26.6
2019-Dec-02 01:00N 15°24' W 039°18'1211.6 070 / 151018.3 25.9 26.7
2019-Dec-02 00:00N 15°24' W 039°06'1313.0 070 / 171018.3 25.7 26.7
2019-Dec-01 23:00N 15°18' W 038°54'6 5.8 070 / 141018.2 25.7 26.6
2019-Dec-01 22:00N 15°18' W 038°48'1211.6 070 / 141017.9 25.9 26.6
2019-Dec-01 21:00N 15°18' W 038°36'1211.6 070 / 131017.4 25.9 26.6
2019-Dec-01 20:00N 15°18' W 038°24'1211.6 080 / 151017.2 25.7 26.5
2019-Dec-01 19:00N 15°18' W 038°12'6 5.8 070 / 141016.7 25.7 26.5
2019-Dec-01 18:00N 15°18' W 038°06'1211.6 070 / 141016.2 25.9 26.5
2019-Dec-01 17:00N 15°18' W 037°54'1211.6 070 / 151016.1 26.2 26.5
2019-Dec-01 16:00N 15°18' W 037°42'1313.0 080 / 151016.4 26.2 26.5
2019-Dec-01 15:00N 15°12' W 037°30'6 5.8 070 / 161016.8 25.9 26.5
2019-Dec-01 14:00N 15°12' W 037°24'1211.6 070 / 151017.5 26.0 26.5
2019-Dec-01 13:00N 15°12' W 037°12'1211.6 080 / 141018.3 26.2 26.5
2019-Dec-01 12:00N 15°12' W 037°00'6 5.8 080 / 141018.1 26.0 26.5
2019-Dec-01 11:00N 15°12' W 036°54'1211.6 080 / 161018.1 26.0 26.4
2019-Dec-01 10:00N 15°12' W 036°42'1211.6 070 / 181017.6 25.5 26.4
2019-Dec-01 09:00N 15°12' W 036°30'1313.0 060 / 161017.2 25.5 26.3
2019-Dec-01 08:00N 15°06' W 036°18'6 5.8 060 / 161016.5 25.4 26.3
2019-Dec-01 07:00N 15°06' W 036°12'1211.6 060 / 161016.2 25.2 26.3
2019-Dec-01 06:00N 15°06' W 036°00'1211.6 060 / 151016.2 25.4 26.3
2019-Dec-01 05:00N 15°06' W 035°48'6 5.8 060 / 161016.5 25.4 26.4
2019-Dec-01 04:00N 15°06' W 035°42'1211.6 060 / 161016.9 25.5 26.4
2019-Dec-01 03:00N 15°06' W 035°30'1211.6 060 / 171017.0 25.5 26.4
2019-Dec-01 02:00N 15°06' W 035°18'1313.0 060 / 151017.2 25.5 26.4
2019-Dec-01 01:00N 15°00' W 035°06'6 5.8 070 / 161017.5 25.5 26.4
2019-Dec-01 00:00N 15°00' W 035°00'1211.6 070 / 151017.8 25.7 26.4
2019-Nov-30 23:00N 15°00' W 034°48'1211.6 070 / 151017.7 25.7 26.4
2019-Nov-30 22:00N 15°00' W 034°36'6 5.8 070 / 131017.3 25.7 26.4
2019-Nov-30 21:00N 15°00' W 034°30'1211.6 070 / 131016.5 25.7 26.4
2019-Nov-30 20:00N 15°00' W 034°18'1211.6 070 / 171016.0 25.5 26.4
2019-Nov-30 19:00N 15°00' W 034°06'1211.6 070 / 181015.6 25.9 26.4
2019-Nov-30 18:00N 15°00' W 033°54'8 8.3 070 / 161015.3 25.9 26.3
2019-Nov-30 17:00N 14°54' W 033°48'1211.6 080 / 151015.0 25.9 26.3
2019-Nov-30 16:00N 14°54' W 033°36'1211.6 080 / 121015.5 25.9 26.4
2019-Nov-30 15:00N 14°54' W 033°24'6 5.8 080 / 151015.8 26.2 26.4
2019-Nov-30 14:00N 14°54' W 033°18'1211.6 070 / 191015.9 25.7 26.4
2019-Nov-30 13:00N 14°54' W 033°06'1211.6 080 / 181016.2 25.7 26.4
2019-Nov-30 12:00N 14°54' W 032°54'1211.6 080 / 211016.2 25.7 26.5
2019-Nov-30 11:00N 14°54' W 032°42'8 8.3 070 / 221016.3 25.5 26.4
2019-Nov-30 10:00N 14°48' W 032°36'1211.6 070 / 211016.1 25.7 26.3
2019-Nov-30 09:00N 14°48' W 032°24'1211.6 080 / 201015.6 25.4 26.2
2019-Nov-30 08:00N 14°48' W 032°12'6 5.8 080 / 181015.3 25.2 26.1
2019-Nov-30 07:00N 14°48' W 032°06'1211.6 080 / 181014.9 25.2 26.0
2019-Nov-30 06:00N 14°48' W 031°54'1211.6 080 / 181015.0 25.4 26.1
2019-Nov-30 05:00N 14°48' W 031°42'1211.6 070 / 161015.0 25.2 26.1
2019-Nov-30 04:00N 14°48' W 031°30'6 5.8 070 / 171015.3 25.2 26.2
2019-Nov-30 03:00N 14°48' W 031°24'1313.1 070 / 181015.8 25.0 26.2
2019-Nov-30 02:00N 14°42' W 031°12'1211.6 070 / 181016.2 25.2 26.2
2019-Nov-30 01:00N 14°42' W 031°00'6 5.8 070 / 131016.4 25.2 26.2
2019-Nov-30 00:00N 14°42' W 030°54'1211.6 060 / 171016.4 25.0 26.2
2019-Nov-29 23:00N 14°42' W 030°42'1211.6 060 / 161016.4 25.2 26.2
2019-Nov-29 22:00N 14°42' W 030°30'1211.6 050 / 131015.8 25.0 26.2
2019-Nov-29 21:00N 14°42' W 030°18'6 5.8 060 / 131015.2 25.0 26.0
2019-Nov-29 20:00N 14°42' W 030°12'1313.1 070 / 141014.6 25.0 25.9
2019-Nov-29 19:00N 14°36' W 030°00'1211.6 060 / 141013.9 25.2 26.0
2019-Nov-29 18:00N 14°36' W 029°48'6 5.8 050 / 171013.4 25.4 25.8
2019-Nov-29 17:00N 14°36' W 029°42'1211.6 050 / 161013.1 25.2 25.8
2019-Nov-29 16:00N 14°36' W 029°30'1211.6 070 / 141013.3 25.5 26.1
2019-Nov-29 15:00N 14°36' W 029°18'1211.6 070 / 141013.8 25.7 26.2
2019-Nov-29 14:00N 14°36' W 029°06'0 0.0 070 / 171014.2 25.5 26.1
2019-Nov-29 13:00N 14°36' W 029°06'0 0.0 060 / 181014.8 25.7 26.1
2019-Nov-29 12:00N 14°36' W 029°06'0 0.0 060 / 181015.3 25.9 26.1
2019-Nov-29 11:00N 14°36' W 029°06'6 5.8 060 / 191015.3 25.7 26.1
2019-Nov-29 10:00N 14°36' W 029°00'6 5.8 060 / 181015.1 25.7 26.1
2019-Nov-29 09:00N 14°36' W 028°54'1313.1 070 / 171014.5 25.4 26.2
2019-Nov-29 08:00N 14°30' W 028°42'1211.6 070 / 161014.4 25.2 26.1
2019-Nov-29 07:00N 14°30' W 028°30'6 5.8 070 / 191014.2 25.4 26.2
2019-Nov-29 06:00N 14°30' W 028°24'1211.6 070 / 141014.0 25.2 26.2
2019-Nov-29 05:00N 14°30' W 028°12'1313.1 050 / 141014.1 25.2 26.3
2019-Nov-29 04:00N 14°36' W 028°00'1313.3 040 / 151014.5 25.2 26.4
2019-Nov-29 03:00N 14°48' W 027°54'1313.1 060 / 121014.8 25.0 26.5
2019-Nov-29 02:00N 14°54' W 027°42'8 8.3 040 / 141015.1 25.0 26.5
2019-Nov-29 01:00N 15°00' W 027°36'1313.0 060 / 101015.5 24.7 26.5
2019-Nov-29 00:00N 15°06' W 027°24'1313.0 060 / 131015.5 24.7 26.6
2019-Nov-28 23:00N 15°12' W 027°12'1313.3 050 / 121015.4 24.7 26.5
2019-Nov-28 22:00N 15°24' W 027°06'1313.0 050 / 121015.1 24.4 26.4
2019-Nov-28 21:00N 15°30' W 026°54'1313.0 060 / 111014.4 24.2 25.7
2019-Nov-28 20:00N 15°36' W 026°42'1716.7 050 / 101013.9 24.4 25.8
2019-Nov-28 19:00N 15°48' W 026°30'8 8.3 070 / 81013.4 24.4 25.4
2019-Nov-28 18:00N 15°54' W 026°24'1716.6 060 / 81013.0 24.9 25.5
2019-Nov-28 17:00N 16°06' W 026°12'1313.0 050 / 81012.6 25.0 25.6
2019-Nov-28 16:00N 16°12' W 026°00'8 8.3 060 / 81012.9 25.2 25.9
2019-Nov-28 15:00N 16°18' W 025°54'1716.6 040 / 101013.2 25.2 25.9
2019-Nov-28 14:00N 16°30' W 025°42'1313.0 060 / 61013.9 24.7 26.2
2019-Nov-28 13:00N 16°36' W 025°30'1313.0 070 / 71014.8 24.4 26.4
2019-Nov-28 12:00N 16°42' W 025°18'8 8.3 090 / 91015.6 24.4 26.2
2019-Nov-28 11:00N 16°48' W 025°12'1313.0 060 / 201015.9 23.9 25.7
2019-Nov-28 10:00N 16°54' W 025°00'0 0.0 030 / 121015.9 23.7 24.0
2019-Nov-28 09:00N 16°54' W 025°00'0 0.0 050 / 81015.4 23.5 24.1
2019-Nov-28 08:00N 16°54' W 025°00'0 0.0 060 / 61015.0 22.9 24.1
2019-Nov-28 07:00N 16°54' W 025°00'0 0.0 050 / 81014.8 23.0 24.1
2019-Nov-28 06:00N 16°54' W 025°00'0 0.0 050 / 71014.5 23.0 24.1
2019-Nov-28 05:00N 16°54' W 025°00'0 0.0 070 / 71014.3 22.9 24.2
2019-Nov-28 04:00N 16°54' W 025°00'0 0.0 080 / 71014.6 22.9 24.2
2019-Nov-28 03:00N 16°54' W 025°00'0 0.0 060 / 71015.2 23.0 24.2
2019-Nov-28 02:00N 16°54' W 025°00'0 0.0 060 / 61015.7 23.2 24.2
2019-Nov-28 01:00N 16°54' W 025°00'0 0.0 050 / 81015.9 23.2 24.2
2019-Nov-28 00:00N 16°54' W 025°00'0 0.0 070 / 71016.2 23.2 24.2
2019-Nov-27 23:00N 16°54' W 025°00'0 0.0 050 / 101016.3 23.4 24.2
2019-Nov-27 22:00N 16°54' W 025°00'0 0.0 060 / 71015.9 23.4 24.2
2019-Nov-27 21:00N 16°54' W 025°00'0 0.0 050 / 121015.2 23.4 24.3
2019-Nov-27 20:00N 16°54' W 025°00'0 0.0 050 / 141014.2 23.4 24.3
2019-Nov-27 19:00N 16°54' W 025°00'0 0.0 050 / 141013.6 23.7 24.3
2019-Nov-27 18:00N 16°54' W 025°00'0 0.0 050 / 131013.2 24.2 24.3
2019-Nov-27 17:00N 16°54' W 025°00'0 0.0 050 / 111013.1 24.5 24.3
2019-Nov-27 16:00N 16°54' W 025°00'0 0.0 050 / 111013.1 24.7 24.3
2019-Nov-27 15:00N 16°54' W 025°00'0 0.0 040 / 121013.9 24.4 24.3
2019-Nov-27 14:00N 16°54' W 025°00'0 0.0 050 / 111014.2 24.2 24.3
2019-Nov-27 13:00N 16°54' W 025°00'0 0.0 050 / 81015.0 24.4 24.2
2019-Nov-27 12:00N 16°54' W 025°00'0 0.0 040 / 121015.8 24.2 24.2
2019-Nov-27 11:00N 16°54' W 025°00'0 0.0 040 / 121016.0 24.2 24.1
2019-Nov-27 10:00N 16°54' W 025°00'0 0.0 050 / 91016.0 23.7 24.1
2019-Nov-27 09:00N 16°54' W 025°00'0 0.0 060 / 91015.6 23.0 24.1
2019-Nov-27 08:00N 16°54' W 025°00'0 0.0 050 / 71015.2 22.7 24.1
2019-Nov-27 07:00N 16°54' W 025°00'0 0.0 060 / 81015.0 22.7 24.1
2019-Nov-27 06:00N 16°54' W 025°00'0 0.0 050 / 121014.7 22.7 24.1
2019-Nov-27 05:00N 16°54' W 025°00'0 0.0 060 / 91014.5 22.7 24.2
2019-Nov-27 04:00N 16°54' W 025°00'0 0.0 050 / 91014.9 22.9 24.2
2019-Nov-27 03:00N 16°54' W 025°00'0 0.0 050 / 101015.2 22.9 24.3
2019-Nov-27 02:00N 16°54' W 025°00'0 0.0 040 / 111015.6 23.0 24.4
2019-Nov-27 01:00N 16°54' W 025°00'0 0.0 040 / 101016.2 23.0 24.4
2019-Nov-27 00:00N 16°54' W 025°00'0 0.0 050 / 101016.4 23.4 24.4
2019-Nov-26 23:00N 16°54' W 025°00'0 0.0 050 / 111016.7 23.4 24.4
2019-Nov-26 22:00N 16°54' W 025°00'0 0.0 050 / 91016.6 23.4 24.4
2019-Nov-26 21:00N 16°54' W 025°00'0 0.0 060 / 111016.1 23.4 24.5
2019-Nov-26 20:00N 16°54' W 025°00'0 0.0 050 / 91015.1 23.4 24.5
2019-Nov-26 19:00N 16°54' W 025°00'0 0.0 050 / 121014.8 23.4 24.5
2019-Nov-26 18:00N 16°54' W 025°00'0 0.0 060 / 101014.4 24.4 24.5
2019-Nov-26 17:00N 16°54' W 025°00'0 0.0 060 / 101014.1 24.7 24.6
2019-Nov-26 16:00N 16°54' W 025°00'0 0.0 050 / 101014.5 24.7 24.6
2019-Nov-26 15:00N 16°54' W 025°00'0 0.0 030 / 131015.0 24.9 24.5
2019-Nov-26 14:00N 16°54' W 025°00'0 0.0 040 / 121015.8 24.7 24.6
2019-Nov-26 13:00N 16°54' W 025°00'0 0.0 060 / 101016.3 25.0 24.5
2019-Nov-26 12:00N 16°54' W 025°00'0 0.0 060 / 111016.7 24.5 24.5
2019-Nov-26 11:00N 16°54' W 025°00'0 0.0 040 / 121017.0 23.9 24.5
2019-Nov-26 10:00N 16°54' W 025°00'0 0.0 040 / 101016.6 24.0 24.5
2019-Nov-26 09:00N 16°54' W 025°00'0 0.0 050 / 91016.0 23.4 24.6
2019-Nov-26 08:00N 16°54' W 025°00'0 0.0 050 / 91015.5 22.9 24.6
2019-Nov-26 07:00N 16°54' W 025°00'0 0.0 050 / 71015.0 22.9 24.6
2019-Nov-26 06:00N 16°54' W 025°00'0 0.0 050 / 101014.9 22.9 24.6
2019-Nov-26 05:00N 16°54' W 025°00'   040 / 91015.0 23.0 24.6

Dump ship's entire track history